createdAt,value
2022-12-20T00:00:29.267Z,4.68
2022-12-20T00:03:15.072Z,5.40
2022-12-20T00:06:00.548Z,5.00
2022-12-20T00:08:48.465Z,4.55
2022-12-20T00:11:34.211Z,4.78
2022-12-20T00:14:20.689Z,4.75
2022-12-20T00:17:06.015Z,5.50
2022-12-20T00:19:57.710Z,5.07
2022-12-20T00:22:44.853Z,5.03
2022-12-20T00:25:30.454Z,5.47
2022-12-20T00:28:15.988Z,4.63
2022-12-20T00:31:02.735Z,5.20
2022-12-20T00:33:50.503Z,4.85
2022-12-20T00:36:36.717Z,4.47
2022-12-20T00:39:26.289Z,5.20
2022-12-20T00:42:11.955Z,4.70
2022-12-20T00:44:57.496Z,4.28
2022-12-20T00:47:42.828Z,4.78
2022-12-20T00:50:28.301Z,5.35
2022-12-20T00:53:14.019Z,4.63
2022-12-20T00:56:00.111Z,4.80
2022-12-20T00:58:45.909Z,4.82
2022-12-20T01:01:34.689Z,4.70
2022-12-20T01:04:20.777Z,4.80
2022-12-20T01:07:06.309Z,4.68
2022-12-20T01:09:52.295Z,5.15
2022-12-20T01:12:37.793Z,5.38
2022-12-20T01:15:23.488Z,5.57
2022-12-20T01:18:09.508Z,5.47
2022-12-20T01:21:09.313Z,5.35
2022-12-20T01:23:55.599Z,5.55
2022-12-20T01:26:44.578Z,5.25
2022-12-20T01:29:29.942Z,5.10
2022-12-20T01:32:15.574Z,5.53
2022-12-20T01:35:01.103Z,5.20
2022-12-20T01:37:46.755Z,5.30
2022-12-20T01:40:32.157Z,5.22
2022-12-20T01:43:19.540Z,5.43
2022-12-20T01:46:06.396Z,4.97
2022-12-20T01:49:10.904Z,4.53
2022-12-20T01:52:02.779Z,4.63
2022-12-20T01:55:11.034Z,5.03
2022-12-20T01:58:09.851Z,5.03
2022-12-20T02:00:56.268Z,4.90
2022-12-20T02:03:43.889Z,5.07
2022-12-20T02:06:29.431Z,5.20
2022-12-20T02:09:15.673Z,4.90
2022-12-20T02:12:23.021Z,4.78
2022-12-20T02:15:20.357Z,4.50
2022-12-20T02:18:31.934Z,5.05
2022-12-20T02:21:38.652Z,5.05
2022-12-20T02:25:13.700Z,4.32
2022-12-20T02:28:30.487Z,4.30
2022-12-20T02:31:21.062Z,4.68
2022-12-20T02:34:11.373Z,4.22
2022-12-20T02:36:59.559Z,4.88
2022-12-20T02:39:48.964Z,4.70
2022-12-20T02:42:36.024Z,5.13
2022-12-20T02:45:26.276Z,4.80
2022-12-20T02:48:12.016Z,5.05
2022-12-20T02:51:00.414Z,4.65
2022-12-20T02:53:46.440Z,4.30
2022-12-20T02:56:43.073Z,4.93
2022-12-20T02:59:33.923Z,5.20
2022-12-20T03:02:20.907Z,5.55
2022-12-20T03:05:07.331Z,5.03
2022-12-20T03:07:56.275Z,5.80
2022-12-20T03:10:44.229Z,5.45
2022-12-20T03:13:30.067Z,5.47
2022-12-20T03:16:20.455Z,5.03
2022-12-20T03:19:08.857Z,5.03
2022-12-20T03:21:54.191Z,4.47
2022-12-20T03:24:39.576Z,4.30
2022-12-20T03:27:30.052Z,5.38
2022-12-20T03:30:16.646Z,4.93
2022-12-20T03:33:02.592Z,4.88
2022-12-20T03:35:48.558Z,5.13
2022-12-20T03:38:39.628Z,4.68
2022-12-20T03:41:29.442Z,4.90
2022-12-20T03:44:18.120Z,4.88
2022-12-20T03:47:03.838Z,4.75
2022-12-20T03:49:49.194Z,5.13
2022-12-20T03:52:37.764Z,5.03
2022-12-20T03:55:24.128Z,5.13
2022-12-20T03:58:09.729Z,4.47
2022-12-20T04:00:58.016Z,4.95
2022-12-20T04:03:57.635Z,4.78
2022-12-20T04:06:43.343Z,4.40
2022-12-20T04:09:30.127Z,4.88
2022-12-20T04:12:23.182Z,4.68
2022-12-20T04:15:08.616Z,4.43
2022-12-20T04:17:55.289Z,5.05
2022-12-20T04:20:55.006Z,4.18
2022-12-20T04:23:45.440Z,4.63
2022-12-20T04:26:31.935Z,5.20
2022-12-20T04:29:18.980Z,5.00
2022-12-20T04:32:07.187Z,3.90
2022-12-20T04:34:52.620Z,4.68
2022-12-20T04:37:41.298Z,4.63
2022-12-20T04:40:26.780Z,4.53
2022-12-20T04:43:15.341Z,4.28
2022-12-20T04:46:01.420Z,4.30
2022-12-20T04:48:59.263Z,5.22
2022-12-20T04:51:45.260Z,4.63
2022-12-20T04:54:34.222Z,5.85
2022-12-20T04:57:30.928Z,4.95
2022-12-20T05:00:27.018Z,5.38
2022-12-20T05:03:24.689Z,5.65
2022-12-20T05:06:14.034Z,5.50
2022-12-20T05:08:59.553Z,6.13
2022-12-20T05:11:45.343Z,6.57
2022-12-20T05:14:30.835Z,6.05
2022-12-20T05:17:18.135Z,6.40
2022-12-20T05:20:05.676Z,6.88
2022-12-20T05:23:10.197Z,6.95
2022-12-20T05:26:14.536Z,6.20
2022-12-20T05:29:00.573Z,5.90
2022-12-20T05:31:46.475Z,5.93
2022-12-20T05:34:35.127Z,6.28
2022-12-20T05:37:20.398Z,6.32
2022-12-20T05:40:07.337Z,5.60
2022-12-20T05:42:53.268Z,6.00
2022-12-20T05:45:51.365Z,6.03
2022-12-20T05:48:42.007Z,6.35
2022-12-20T05:51:30.587Z,5.30
2022-12-20T05:54:22.816Z,5.32
2022-12-20T05:57:16.197Z,5.60
2022-12-20T06:00:02.243Z,5.05
2022-12-20T06:02:50.920Z,4.70
2022-12-20T06:06:03.632Z,4.97
2022-12-20T06:08:57.478Z,4.72
2022-12-20T06:17:32.446Z,4.50
2022-12-20T06:20:24.472Z,4.10
2022-12-20T06:23:16.953Z,4.35
2022-12-20T06:26:09.751Z,3.92
2022-12-20T06:29:07.233Z,4.35
2022-12-20T06:31:57.702Z,4.57
2022-12-20T06:34:43.555Z,4.72
2022-12-20T06:37:30.173Z,3.60
2022-12-20T06:40:15.710Z,4.35
2022-12-20T06:43:01.244Z,3.95
2022-12-20T06:45:50.181Z,3.95
2022-12-20T06:48:35.743Z,4.05
2022-12-20T06:51:23.291Z,3.53
2022-12-20T06:54:08.865Z,4.47
2022-12-20T06:56:54.842Z,3.67
2022-12-20T06:59:43.592Z,4.43
2022-12-20T07:02:29.208Z,4.95
2022-12-20T07:05:14.957Z,4.00
2022-12-20T07:08:00.200Z,4.43
2022-12-20T07:10:46.155Z,4.57
2022-12-20T07:13:31.701Z,3.35
2022-12-20T07:16:18.121Z,4.40
2022-12-20T07:19:03.869Z,3.80
2022-12-20T07:21:49.391Z,3.70
2022-12-20T07:24:36.699Z,4.00
2022-12-20T07:27:26.062Z,3.85
2022-12-20T07:30:11.517Z,4.10
2022-12-20T07:32:57.384Z,3.83
2022-12-20T07:35:52.436Z,3.58
2022-12-20T07:38:42.727Z,4.13
2022-12-20T07:41:28.439Z,3.63
2022-12-20T07:44:13.827Z,3.45
2022-12-20T07:47:02.243Z,4.00
2022-12-20T07:49:49.471Z,3.80
2022-12-20T07:52:36.347Z,4.05
2022-12-20T07:55:22.359Z,3.80
2022-12-20T07:58:13.019Z,4.25
2022-12-20T08:00:59.006Z,4.38
2022-12-20T08:03:50.099Z,4.32
2022-12-20T08:06:37.752Z,4.72
2022-12-20T08:09:27.174Z,4.60
2022-12-20T08:12:18.797Z,4.30
2022-12-20T08:15:05.009Z,3.88
2022-12-20T08:17:53.446Z,4.65
2022-12-20T08:20:38.726Z,4.35
2022-12-20T08:23:24.425Z,3.60
2022-12-20T08:26:10.153Z,4.30
2022-12-20T08:28:55.995Z,4.40
2022-12-20T08:31:50.055Z,4.22
2022-12-20T08:34:39.488Z,3.67
2022-12-20T08:37:24.954Z,4.20
2022-12-20T08:40:11.346Z,4.32
2022-12-20T08:42:56.806Z,4.10
2022-12-20T08:45:44.444Z,4.60
2022-12-20T08:48:30.093Z,4.55
2022-12-20T08:51:15.490Z,5.00
2022-12-20T08:54:02.752Z,4.30
2022-12-20T08:56:48.737Z,4.50
2022-12-20T08:59:34.238Z,4.40
2022-12-20T09:02:19.816Z,4.25
2022-12-20T09:05:06.183Z,4.57
2022-12-20T09:07:53.482Z,4.88
2022-12-20T09:10:40.999Z,4.90
2022-12-20T09:13:26.742Z,5.18
2022-12-20T09:16:14.473Z,4.38
2022-12-20T09:19:05.650Z,4.90
2022-12-20T09:21:52.128Z,4.70
2022-12-20T09:24:40.458Z,5.60
2022-12-20T09:27:26.000Z,5.70
2022-12-20T09:30:11.833Z,5.60
2022-12-20T09:32:57.444Z,5.43
2022-12-20T09:35:55.673Z,5.63
2022-12-20T09:38:41.725Z,6.68
2022-12-20T09:41:39.784Z,5.93
2022-12-20T09:44:36.123Z,5.95
2022-12-20T09:47:28.309Z,6.90
2022-12-20T09:50:17.805Z,5.75
2022-12-20T09:53:41.598Z,6.05
2022-12-20T09:56:29.045Z,5.80
2022-12-20T09:59:19.099Z,5.65
2022-12-20T10:02:44.045Z,6.35
2022-12-20T10:05:40.883Z,5.68
2022-12-20T10:08:50.111Z,5.60
2022-12-20T10:12:28.757Z,5.60
2022-12-20T10:15:25.732Z,5.18
2022-12-20T10:18:11.070Z,5.50
2022-12-20T10:21:20.179Z,5.53
2022-12-20T10:24:16.420Z,5.28
2022-12-20T10:27:28.221Z,5.20
2022-12-20T10:30:21.342Z,6.57
2022-12-20T10:33:09.712Z,5.90
2022-12-20T10:35:55.508Z,6.75
2022-12-20T10:38:50.815Z,6.15
2022-12-20T10:41:42.887Z,6.30
2022-12-20T10:44:33.153Z,6.00
2022-12-20T10:47:45.941Z,5.03
2022-12-20T10:50:31.588Z,6.15
2022-12-20T10:53:21.545Z,5.88
2022-12-20T10:56:09.968Z,5.82
2022-12-20T10:58:56.923Z,6.53
2022-12-20T11:01:53.592Z,6.82
2022-12-20T11:04:40.479Z,7.50
2022-12-20T11:07:29.041Z,7.68
2022-12-20T11:10:24.355Z,7.80
2022-12-20T11:13:26.515Z,8.52
2022-12-20T11:16:24.460Z,9.10
2022-12-20T11:19:37.675Z,8.18
2022-12-20T11:22:32.485Z,7.93
2022-12-20T11:25:56.836Z,7.77
2022-12-20T11:29:16.930Z,9.05
2022-12-20T11:32:33.004Z,8.20
2022-12-20T11:35:30.898Z,8.05
2022-12-20T11:38:35.796Z,8.25
2022-12-20T11:41:28.695Z,8.15
2022-12-20T11:44:27.759Z,7.20
2022-12-20T11:47:47.947Z,7.30
2022-12-20T11:50:48.317Z,7.72
2022-12-20T11:53:50.842Z,6.97
2022-12-20T11:56:45.137Z,7.10
2022-12-20T11:59:49.274Z,6.00
2022-12-20T12:02:58.042Z,6.72
2022-12-20T12:05:49.233Z,6.47
2022-12-20T12:08:52.841Z,7.30
2022-12-20T12:12:10.421Z,7.82
2022-12-20T12:15:04.684Z,7.85
2022-12-20T12:18:01.837Z,7.28
2022-12-20T12:20:56.828Z,7.43
2022-12-20T12:23:49.864Z,6.53
2022-12-20T12:26:39.999Z,7.65
2022-12-20T12:29:25.674Z,6.47
2022-12-20T12:32:24.824Z,7.25
2022-12-20T12:35:42.894Z,7.60
2022-12-20T12:38:32.754Z,7.97
2022-12-20T12:41:43.390Z,8.43
2022-12-20T12:44:34.669Z,7.60
2022-12-20T12:47:27.511Z,8.27
2022-12-20T12:50:23.402Z,9.27
2022-12-20T12:53:17.545Z,8.43
2022-12-20T12:56:43.645Z,9.77
2022-12-20T12:59:33.009Z,9.55
2022-12-20T13:02:28.201Z,9.57
2022-12-20T13:05:13.637Z,9.15
2022-12-20T13:08:00.841Z,9.10
2022-12-20T13:10:53.041Z,10.05
2022-12-20T13:13:39.445Z,9.10
2022-12-20T13:16:48.695Z,10.05
2022-12-20T13:19:38.725Z,10.02
2022-12-20T13:22:26.535Z,8.90
2022-12-20T13:25:29.957Z,9.43
2022-12-20T13:28:25.316Z,10.23
2022-12-20T13:31:11.002Z,9.07
2022-12-20T13:34:00.923Z,8.80
2022-12-20T13:36:46.726Z,9.35
2022-12-20T13:39:34.324Z,8.88
2022-12-20T13:42:32.968Z,9.45
2022-12-20T13:45:18.752Z,9.50
2022-12-20T13:48:11.693Z,9.40
2022-12-20T13:50:58.369Z,9.32
2022-12-20T13:53:54.212Z,9.18
2022-12-20T13:56:51.078Z,9.95
2022-12-20T13:59:36.826Z,9.95
2022-12-20T14:02:29.363Z,10.20
2022-12-20T14:05:28.624Z,10.02
2022-12-20T14:08:24.854Z,10.07
2022-12-20T14:11:12.612Z,12.13
2022-12-20T14:14:03.497Z,11.70
2022-12-20T14:16:49.281Z,11.57
2022-12-20T14:19:34.778Z,10.95
2022-12-20T14:22:20.568Z,11.05
2022-12-20T14:25:10.760Z,10.50
2022-12-20T14:27:58.084Z,11.30
2022-12-20T14:30:44.985Z,12.27
2022-12-20T14:33:42.214Z,12.68
2022-12-20T14:36:27.880Z,11.45
2022-12-20T14:39:54.866Z,12.02
2022-12-20T14:42:40.821Z,11.77
2022-12-20T14:45:28.833Z,12.93
2022-12-20T14:48:17.210Z,12.40
2022-12-20T14:51:05.635Z,12.93
2022-12-20T14:53:51.923Z,14.30
2022-12-20T14:56:37.917Z,13.25
2022-12-20T14:59:31.749Z,14.23
2022-12-20T15:02:39.658Z,14.60
2022-12-20T15:05:34.963Z,15.30
2022-12-20T15:08:30.092Z,14.23
2022-12-20T15:14:36.947Z,14.82
2022-12-20T15:17:25.652Z,14.60
2022-12-20T15:20:15.005Z,14.43
2022-12-20T15:23:00.441Z,14.63
2022-12-20T15:25:47.077Z,14.55
2022-12-20T15:28:32.685Z,15.00
2022-12-20T15:31:20.542Z,13.88
2022-12-20T15:34:36.758Z,13.30
2022-12-20T15:37:26.989Z,13.65
2022-12-20T15:40:14.963Z,13.13
2022-12-20T15:43:03.210Z,13.60
2022-12-20T15:45:54.082Z,13.75
2022-12-20T15:48:39.934Z,13.63
2022-12-20T15:51:32.073Z,13.65
2022-12-20T15:54:27.973Z,14.40
2022-12-20T15:57:16.751Z,15.45
2022-12-20T16:00:04.660Z,15.57
2022-12-20T16:03:02.703Z,14.70
2022-12-20T16:05:49.635Z,14.38
2022-12-20T16:08:35.202Z,16.42
2022-12-20T16:11:28.403Z,16.65
2022-12-20T16:14:21.837Z,18.33
2022-12-20T16:17:09.721Z,17.23
2022-12-20T16:19:55.622Z,16.63
2022-12-20T16:22:41.415Z,17.30
2022-12-20T16:25:32.515Z,17.75
2022-12-20T16:28:18.411Z,18.67
2022-12-20T16:31:31.115Z,18.13
2022-12-20T16:34:18.256Z,18.58
2022-12-20T16:37:04.953Z,17.60
2022-12-20T16:39:50.507Z,19.98
2022-12-20T16:42:36.581Z,19.38
2022-12-20T16:45:25.169Z,17.20
2022-12-20T16:48:31.115Z,18.40
2022-12-20T16:51:32.090Z,18.33
2022-12-20T16:54:23.126Z,18.02
2022-12-20T16:57:09.782Z,19.20
2022-12-20T16:59:55.246Z,19.25
2022-12-20T17:02:41.102Z,20.08
2022-12-20T17:05:30.583Z,19.90
2022-12-20T17:11:23.092Z,20.67
2022-12-20T17:14:12.924Z,21.67
2022-12-20T17:17:01.767Z,21.13
2022-12-20T17:19:47.567Z,20.80
2022-12-20T17:25:40.175Z,22.35
2022-12-20T17:28:28.638Z,21.42
2022-12-20T17:31:39.815Z,23.35
2022-12-20T17:34:27.420Z,22.83
2022-12-20T17:37:12.667Z,23.35
2022-12-20T17:40:01.304Z,22.77
2022-12-20T17:42:46.871Z,23.92
2022-12-20T17:45:36.219Z,24.45
2022-12-20T17:48:27.455Z,25.00
2022-12-20T17:51:36.448Z,26.30
2022-12-20T17:54:28.084Z,26.52
2022-12-20T17:57:16.829Z,25.30
2022-12-20T18:00:03.112Z,27.10
2022-12-20T18:02:51.172Z,26.70
2022-12-20T18:05:40.561Z,27.55
2022-12-20T18:08:25.773Z,28.83
2022-12-20T18:11:11.271Z,29.48
2022-12-20T18:13:58.489Z,29.10
2022-12-20T18:16:47.603Z,31.58
2022-12-20T18:19:33.156Z,31.33
2022-12-20T18:22:18.809Z,31.65
2022-12-20T18:25:08.399Z,31.50
2022-12-20T18:27:53.955Z,32.08
2022-12-20T18:30:42.352Z,33.58
2022-12-20T18:33:27.737Z,34.65
2022-12-20T18:36:16.432Z,32.58
2022-12-20T18:39:07.487Z,34.05
2022-12-20T18:41:53.160Z,34.38
2022-12-20T18:44:39.782Z,35.28
2022-12-20T18:47:25.595Z,36.88
2022-12-20T18:50:13.259Z,36.53
2022-12-20T18:53:01.553Z,37.65
2022-12-20T18:55:48.460Z,38.22
2022-12-20T18:58:34.137Z,37.90
2022-12-20T19:01:25.982Z,38.03
2022-12-20T19:04:11.892Z,37.85
2022-12-20T19:06:58.389Z,40.20
2022-12-20T19:09:46.670Z,39.15
2022-12-20T19:12:32.172Z,38.35
2022-12-20T19:15:17.891Z,41.35
2022-12-20T19:18:03.468Z,40.53
2022-12-20T19:20:48.793Z,40.13
2022-12-20T19:23:35.466Z,39.22
2022-12-20T19:26:23.337Z,38.95
2022-12-20T19:29:09.094Z,42.00
2022-12-20T19:31:55.353Z,41.10
2022-12-20T19:34:51.093Z,39.28
2022-12-20T19:37:39.427Z,41.78
2022-12-20T19:40:24.783Z,41.88
2022-12-20T19:43:12.641Z,42.88
2022-12-20T19:45:58.367Z,41.38
2022-12-20T19:48:44.142Z,42.92
2022-12-20T19:51:29.657Z,40.63
2022-12-20T19:54:15.140Z,39.78
2022-12-20T19:57:00.697Z,40.85
2022-12-20T19:59:49.716Z,38.22
2022-12-20T20:02:41.494Z,37.78
2022-12-20T20:05:27.409Z,37.78
2022-12-20T20:08:13.248Z,38.30
2022-12-20T20:11:05.295Z,36.20
2022-12-20T20:13:52.971Z,36.60
2022-12-20T20:16:41.281Z,35.58
2022-12-20T20:19:29.459Z,35.40
2022-12-20T20:22:19.281Z,36.42
2022-12-20T20:25:08.469Z,36.97
2022-12-20T20:27:56.416Z,37.83
2022-12-20T20:30:47.042Z,35.42
2022-12-20T20:33:32.607Z,38.15
2022-12-20T20:36:20.636Z,39.13
2022-12-20T20:39:08.887Z,38.08
2022-12-20T20:41:55.828Z,38.80
2022-12-20T20:44:41.315Z,38.67
2022-12-20T20:47:26.865Z,37.05
2022-12-20T20:50:14.037Z,38.47
2022-12-20T20:53:00.048Z,40.10
2022-12-20T20:55:45.305Z,41.03
2022-12-20T20:58:31.150Z,40.35
2022-12-20T21:01:16.454Z,39.22
2022-12-20T21:04:02.001Z,39.38
2022-12-20T21:06:47.315Z,41.50
2022-12-20T21:09:32.697Z,39.00
2022-12-20T21:12:19.407Z,41.65
2022-12-20T21:15:24.297Z,39.78
2022-12-20T21:18:11.184Z,41.30
2022-12-20T21:20:57.520Z,38.60
2022-12-20T21:23:47.031Z,37.90
2022-12-20T21:26:32.182Z,40.30
2022-12-20T21:29:17.811Z,38.80
2022-12-20T21:32:05.838Z,37.72
2022-12-20T21:34:54.484Z,39.90
2022-12-20T21:37:41.903Z,37.20
2022-12-20T21:40:27.376Z,36.95
2022-12-20T21:43:12.894Z,38.30
2022-12-20T21:45:58.831Z,39.15
2022-12-20T21:48:45.498Z,40.28
2022-12-20T21:51:31.039Z,37.60
2022-12-20T21:54:16.450Z,32.17
2022-12-20T21:57:02.575Z,31.75
2022-12-20T21:59:48.017Z,31.50
2022-12-20T22:02:33.389Z,28.00
2022-12-20T22:05:18.781Z,28.25
2022-12-20T22:08:04.798Z,24.65
2022-12-20T22:11:01.808Z,25.52
2022-12-20T22:13:47.501Z,24.00
2022-12-20T22:16:34.975Z,23.27
2022-12-20T22:19:21.062Z,21.00
2022-12-20T22:22:06.407Z,21.60
2022-12-20T22:24:54.474Z,20.83
2022-12-20T22:27:39.837Z,18.75
2022-12-20T22:30:25.512Z,20.10
2022-12-20T22:33:13.219Z,21.40
2022-12-20T22:36:01.848Z,19.92
2022-12-20T22:38:49.980Z,19.92
2022-12-20T22:41:35.545Z,19.98
2022-12-20T22:44:21.348Z,18.25
2022-12-20T22:47:07.112Z,17.20
2022-12-20T22:49:53.305Z,16.27
2022-12-20T22:52:38.896Z,15.68
2022-12-20T22:55:26.373Z,14.65
2022-12-20T22:58:14.048Z,14.18
2022-12-20T23:01:01.589Z,13.98
2022-12-20T23:03:48.057Z,15.38
2022-12-20T23:06:33.401Z,14.55
2022-12-20T23:09:18.876Z,14.80
2022-12-20T23:12:22.844Z,15.30
2022-12-20T23:15:31.882Z,13.32
2022-12-20T23:18:17.477Z,11.77
2022-12-20T23:21:22.744Z,12.10
2022-12-20T23:24:08.262Z,12.30
2022-12-20T23:26:53.926Z,12.18
2022-12-20T23:29:39.529Z,11.93
2022-12-20T23:32:25.432Z,12.18
2022-12-20T23:35:12.951Z,11.70
2022-12-20T23:37:59.233Z,11.23
2022-12-20T23:40:44.643Z,12.05
2022-12-20T23:43:30.663Z,13.68
2022-12-20T23:46:19.267Z,12.70
2022-12-20T23:49:04.753Z,14.45
2022-12-20T23:51:50.018Z,13.85
2022-12-20T23:54:35.668Z,13.57
2022-12-20T23:57:20.802Z,14.48
